createdAt,value
2019-02-24T00:10:44.748Z,19.27
2019-02-24T00:11:44.435Z,18.48
2019-02-24T00:12:44.366Z,18.48
2019-02-24T00:13:44.297Z,18.17
2019-02-24T00:14:44.221Z,18.17
2019-02-24T00:15:44.137Z,17.97
2019-02-24T00:16:44.086Z,17.67
2019-02-24T00:17:43.966Z,17.77
2019-02-24T00:18:43.874Z,17.57
2019-02-24T00:19:43.781Z,17.77
2019-02-24T00:20:43.692Z,17.07
2019-02-24T00:21:43.593Z,16.77
2019-02-24T00:22:43.538Z,16.97
2019-02-24T00:23:43.414Z,16.47
2019-02-24T00:24:43.318Z,17.57
2019-02-24T00:38:30.485Z,16.97
2019-02-24T00:39:30.466Z,17.68
2019-02-24T00:40:30.453Z,17.58
2019-02-24T00:41:30.434Z,16.29
2019-02-24T00:42:30.433Z,17.19
2019-02-24T00:43:30.409Z,18.40
2019-02-24T00:44:30.420Z,18.30
2019-02-24T00:45:30.396Z,18.60
2019-02-24T00:46:30.384Z,18.90
2019-02-24T00:47:30.367Z,19.10
2019-02-24T00:48:30.361Z,19.10
2019-02-24T00:49:30.346Z,19.01
2019-02-24T00:50:30.353Z,19.40
2019-02-24T00:51:30.320Z,19.10
2019-02-24T00:52:30.319Z,19.70
2019-02-24T00:53:30.312Z,19.70
2019-02-24T00:54:30.291Z,19.31
2019-02-24T00:55:30.729Z,19.71
2019-02-24T00:56:30.291Z,19.81
2019-02-24T00:57:30.259Z,20.21
2019-02-24T00:58:30.245Z,20.51
2019-02-24T00:59:30.244Z,20.12
2019-02-24T01:00:30.226Z,20.21
2019-02-24T01:01:30.211Z,20.31
2019-02-24T01:02:30.224Z,19.62
2019-02-24T01:03:30.201Z,20.53
2019-02-24T01:04:30.202Z,19.81
2019-02-24T01:05:30.173Z,19.81
2019-02-24T01:06:30.161Z,20.42
2019-02-24T01:07:30.148Z,20.31
2019-02-24T01:08:30.234Z,20.31
2019-02-24T01:09:30.126Z,20.42
2019-02-24T01:10:30.118Z,20.42
2019-02-24T01:11:30.102Z,20.42
2019-02-24T01:12:30.088Z,21.12
2019-02-24T01:13:30.081Z,21.12
2019-02-24T01:14:30.090Z,21.12
2019-02-24T01:15:30.056Z,21.12
2019-02-24T01:16:30.047Z,21.33
2019-02-24T01:17:30.046Z,21.23
2019-02-24T01:18:30.028Z,20.83
2019-02-24T01:19:30.036Z,20.92
2019-02-24T01:20:30.028Z,20.73
2019-02-24T01:21:29.986Z,21.73
2019-02-24T01:22:29.983Z,21.73
2019-02-24T01:23:29.966Z,21.62
2019-02-24T01:24:29.961Z,21.33
2019-02-24T01:25:29.961Z,21.23
2019-02-24T01:26:29.955Z,21.33
2019-02-24T01:27:29.923Z,21.53
2019-02-24T01:28:29.915Z,21.62
2019-02-24T01:29:29.901Z,21.53
2019-02-24T01:30:29.896Z,22.03
2019-02-24T01:31:29.882Z,21.42
2019-02-24T01:32:29.897Z,22.13
2019-02-24T01:33:29.878Z,22.23
2019-02-24T01:34:29.846Z,22.13
2019-02-24T01:35:29.843Z,22.13
2019-02-24T01:36:29.827Z,22.13
2019-02-24T01:37:29.817Z,22.63
2019-02-24T01:38:29.818Z,22.63
2019-02-24T01:39:29.795Z,22.73
2019-02-24T01:40:29.779Z,22.43
2019-02-24T01:41:29.784Z,22.13
2019-02-24T01:42:29.767Z,22.34
2019-02-24T01:43:29.744Z,22.93
2019-02-24T01:44:29.752Z,22.84
2019-02-24T01:45:29.732Z,22.83
2019-02-24T01:46:29.713Z,22.84
2019-02-24T01:47:29.698Z,23.04
2019-02-24T01:48:29.699Z,22.64
2019-02-24T01:49:29.689Z,23.13
2019-02-24T01:50:29.879Z,22.84
2019-02-24T01:51:29.657Z,22.43
2019-02-24T01:52:29.679Z,22.34
2019-02-24T01:53:29.637Z,23.03
2019-02-24T01:54:29.624Z,23.44
2019-02-24T01:55:29.624Z,22.74
2019-02-24T01:56:29.632Z,22.93
2019-02-24T01:57:29.590Z,23.24
2019-02-24T01:58:35.094Z,23.13
2019-02-24T01:59:30.569Z,22.93
2019-02-24T02:00:29.558Z,22.84
2019-02-24T02:01:29.544Z,23.24
2019-02-24T02:02:29.555Z,23.04
2019-02-24T02:03:29.524Z,23.24
2019-02-24T02:04:29.519Z,23.24
2019-02-24T02:05:29.503Z,23.13
2019-02-24T02:06:29.499Z,23.43
2019-02-24T02:07:29.483Z,23.44
2019-02-24T02:08:29.499Z,23.44
2019-02-24T02:09:29.464Z,23.34
2019-02-24T02:10:29.450Z,24.04
2019-02-24T02:11:29.441Z,23.44
2019-02-24T02:12:29.426Z,23.44
2019-02-24T02:13:29.415Z,23.64
2019-02-24T02:14:29.424Z,23.54
2019-02-24T02:15:29.391Z,23.53
2019-02-24T02:16:29.375Z,23.44
2019-02-24T02:17:29.370Z,23.73
2019-02-24T02:18:29.356Z,24.04
2019-02-24T02:19:29.351Z,24.14
2019-02-24T02:20:29.360Z,23.94
2019-02-24T02:21:29.330Z,24.23
2019-02-24T02:22:29.320Z,24.24
2019-02-24T02:23:29.308Z,24.43
2019-02-24T02:24:29.288Z,24.63
2019-02-24T02:25:29.279Z,24.73
2019-02-24T02:26:29.305Z,24.54
2019-02-24T02:27:29.257Z,24.64
2019-02-24T02:28:29.245Z,24.54
2019-02-24T02:29:29.244Z,24.33
2019-02-24T02:30:29.226Z,24.44
2019-02-24T02:31:29.223Z,24.24
2019-02-24T02:32:29.225Z,23.64
2019-02-24T02:33:29.195Z,24.14
2019-02-24T02:34:29.184Z,24.74
2019-02-24T02:35:29.167Z,24.54
2019-02-24T02:36:29.161Z,24.44
2019-02-24T02:37:29.167Z,24.74
2019-02-24T02:38:29.170Z,24.34
2019-02-24T02:39:29.135Z,24.04
2019-02-24T02:40:29.118Z,24.95
2019-02-24T02:41:29.105Z,25.14
2019-02-24T02:42:29.092Z,25.04
2019-02-24T02:43:29.076Z,25.04
2019-02-24T02:44:29.108Z,25.14
2019-02-24T02:45:29.072Z,24.95
2019-02-24T02:46:29.048Z,25.04
2019-02-24T02:47:29.033Z,24.64
2019-02-24T02:48:29.026Z,24.64
2019-02-24T02:49:29.021Z,25.24
2019-02-24T02:50:29.023Z,25.04
2019-02-24T02:51:28.988Z,25.04
2019-02-24T02:52:28.982Z,24.84
2019-02-24T02:53:28.968Z,24.84
2019-02-24T02:54:28.958Z,24.95
2019-02-24T02:55:28.952Z,24.64
2019-02-24T02:56:28.959Z,25.45
2019-02-24T02:57:28.930Z,25.14
2019-02-24T02:58:28.916Z,24.95
2019-02-24T02:59:28.906Z,24.95
2019-02-24T03:00:28.896Z,25.54
2019-02-24T03:01:28.882Z,25.95
2019-02-24T03:02:28.888Z,25.74
2019-02-24T03:03:28.862Z,26.25
2019-02-24T03:04:28.852Z,25.95
2019-02-24T03:05:28.844Z,26.15
2019-02-24T03:06:28.837Z,25.84
2019-02-24T03:07:28.814Z,25.95
2019-02-24T03:08:28.815Z,25.65
2019-02-24T03:09:28.795Z,25.74
2019-02-24T03:10:28.787Z,25.74
2019-02-24T03:11:28.779Z,25.74
2019-02-24T03:12:28.767Z,25.65
2019-02-24T03:13:28.753Z,25.84
2019-02-24T03:14:28.758Z,25.74
2019-02-24T03:15:28.732Z,25.95
2019-02-24T03:16:28.714Z,25.34
2019-02-24T03:17:28.708Z,25.34
2019-02-24T03:18:28.699Z,25.84
2019-02-24T03:19:28.692Z,25.34
2019-02-24T03:20:28.694Z,26.34
2019-02-24T03:21:28.657Z,26.25
2019-02-24T03:22:28.653Z,26.34
2019-02-24T03:23:28.639Z,26.34
2019-02-24T03:24:28.625Z,26.04
2019-02-24T03:25:28.615Z,26.66
2019-02-24T03:26:28.630Z,26.76
2019-02-24T03:27:28.597Z,26.76
2019-02-24T03:28:28.586Z,26.65
2019-02-24T03:29:28.573Z,26.65
2019-02-24T03:30:28.569Z,26.54
2019-02-24T03:31:28.553Z,26.84
2019-02-24T03:32:28.562Z,26.66
2019-02-24T03:33:28.535Z,26.45
2019-02-24T03:34:28.522Z,26.25
2019-02-24T03:35:28.510Z,26.34
2019-02-24T03:36:28.493Z,26.56
2019-02-24T03:37:28.488Z,26.16
2019-02-24T03:38:28.501Z,26.25
2019-02-24T03:39:28.469Z,26.15
2019-02-24T03:40:28.454Z,26.46
2019-02-24T03:41:28.440Z,26.56
2019-02-24T03:42:28.439Z,26.84
2019-02-24T03:43:28.423Z,26.66
2019-02-24T03:44:28.436Z,26.65
2019-02-24T03:45:28.399Z,26.65
2019-02-24T03:46:28.384Z,26.75
2019-02-24T03:47:28.377Z,26.35
2019-02-24T03:48:28.364Z,26.34
2019-02-24T03:49:28.357Z,26.25
2019-02-24T03:50:28.373Z,26.54
2019-02-24T03:51:28.334Z,26.35
2019-02-24T03:52:28.321Z,26.35
2019-02-24T03:53:28.311Z,26.34
2019-02-24T03:54:28.301Z,26.45
2019-02-24T03:55:28.293Z,27.16
2019-02-24T03:56:28.313Z,26.65
2019-02-24T03:57:28.265Z,26.84
2019-02-24T03:58:28.258Z,26.75
2019-02-24T03:59:28.246Z,26.66
2019-02-24T04:00:28.230Z,26.65
2019-02-24T04:01:28.224Z,27.35
2019-02-24T04:02:28.231Z,26.84
2019-02-24T04:03:28.201Z,27.65
2019-02-24T04:04:28.189Z,27.56
2019-02-24T04:05:28.177Z,27.55
2019-02-24T04:06:28.170Z,27.36
2019-02-24T04:07:28.164Z,27.16
2019-02-24T04:08:28.181Z,27.26
2019-02-24T04:09:28.132Z,27.45
2019-02-24T04:10:28.123Z,27.46
2019-02-24T04:11:28.120Z,27.16
2019-02-24T04:12:28.107Z,27.25
2019-02-24T04:13:28.084Z,26.84
2019-02-24T04:14:28.112Z,27.04
2019-02-24T04:15:28.070Z,27.04
2019-02-24T04:16:28.056Z,27.16
2019-02-24T04:17:28.042Z,27.04
2019-02-24T04:18:28.036Z,26.95
2019-02-24T04:19:28.025Z,27.35
2019-02-24T04:20:28.029Z,27.15
2019-02-24T04:21:28.003Z,26.84
2019-02-24T04:22:27.991Z,26.75
2019-02-24T04:23:27.977Z,26.86
2019-02-24T04:24:27.966Z,27.56
2019-02-24T04:25:27.959Z,26.84
2019-02-24T04:26:27.973Z,26.95
2019-02-24T04:27:27.942Z,26.96
2019-02-24T04:28:27.929Z,27.45
2019-02-24T04:29:27.916Z,27.46
2019-02-24T04:30:27.914Z,27.45
2019-02-24T04:31:27.890Z,27.76
2019-02-24T04:32:27.902Z,27.04
2019-02-24T04:33:27.871Z,27.65
2019-02-24T04:34:27.859Z,27.36
2019-02-24T04:35:27.847Z,27.55
2019-02-24T04:36:27.843Z,27.66
2019-02-24T04:37:27.842Z,27.36
2019-02-24T04:38:27.824Z,27.46
2019-02-24T04:39:27.803Z,27.46
2019-02-24T04:40:27.789Z,27.15
2019-02-24T04:41:27.779Z,27.46
2019-02-24T04:42:27.770Z,27.15
2019-02-24T04:43:27.766Z,27.15
2019-02-24T04:44:27.768Z,27.25
2019-02-24T04:45:27.763Z,27.55
2019-02-24T04:46:27.729Z,27.45
2019-02-24T04:47:27.714Z,27.46
2019-02-24T04:48:27.707Z,27.35
2019-02-24T04:49:27.693Z,27.26
2019-02-24T04:50:27.705Z,27.26
2019-02-24T04:51:27.672Z,27.56
2019-02-24T04:52:27.669Z,27.36
2019-02-24T04:53:27.650Z,27.16
2019-02-24T04:54:27.634Z,27.15
2019-02-24T04:55:27.627Z,27.36
2019-02-24T04:56:27.634Z,27.26
2019-02-24T04:57:27.606Z,28.06
2019-02-24T04:58:27.591Z,27.76
2019-02-24T04:59:34.775Z,26.86
2019-02-24T05:00:28.573Z,27.46
2019-02-24T05:01:27.561Z,27.46
2019-02-24T05:02:27.569Z,27.16
2019-02-24T05:03:27.540Z,27.26
2019-02-24T05:04:27.535Z,27.56
2019-02-24T05:05:27.528Z,27.15
2019-02-24T05:06:27.513Z,27.35
2019-02-24T05:07:27.500Z,27.46
2019-02-24T05:08:27.525Z,27.65
2019-02-24T05:09:27.479Z,27.36
2019-02-24T05:10:27.456Z,27.86
2019-02-24T05:11:27.466Z,27.65
2019-02-24T05:12:27.445Z,27.65
2019-02-24T05:13:27.434Z,27.56
2019-02-24T05:14:27.432Z,27.55
2019-02-24T05:15:27.420Z,27.66
2019-02-24T05:16:27.401Z,27.36
2019-02-24T05:17:27.381Z,27.46
2019-02-24T05:18:27.371Z,28.56
2019-02-24T05:19:27.359Z,27.46
2019-02-24T05:20:27.473Z,28.26
2019-02-24T05:21:27.345Z,27.26
2019-02-24T05:22:27.330Z,27.56
2019-02-24T05:23:27.320Z,28.25
2019-02-24T05:24:27.305Z,28.15
2019-02-24T05:25:27.296Z,28.26
2019-02-24T05:26:27.304Z,28.06
2019-02-24T05:27:27.279Z,28.16
2019-02-24T05:28:27.270Z,28.16
2019-02-24T05:29:27.249Z,28.05
2019-02-24T05:30:27.236Z,28.66
2019-02-24T05:31:27.231Z,28.77
2019-02-24T05:32:27.241Z,28.06
2019-02-24T05:33:27.210Z,28.96
2019-02-24T05:34:27.198Z,28.56
2019-02-24T05:35:27.190Z,28.25
2019-02-24T05:36:27.188Z,28.86
2019-02-24T05:37:27.165Z,28.66
2019-02-24T05:38:27.186Z,27.66
2019-02-24T05:39:27.140Z,28.46
2019-02-24T05:40:27.132Z,28.56
2019-02-24T05:41:27.125Z,28.66
2019-02-24T05:42:27.105Z,28.77
2019-02-24T05:43:27.096Z,28.77
2019-02-24T05:44:27.105Z,28.36
2019-02-24T05:45:27.076Z,27.96
2019-02-24T05:46:27.057Z,28.16
2019-02-24T05:47:27.085Z,28.25
2019-02-24T05:48:27.087Z,28.26
2019-02-24T05:49:27.034Z,28.46
2019-02-24T05:50:27.045Z,28.26
2019-02-24T05:51:27.009Z,28.26
2019-02-24T05:52:26.999Z,27.76
2019-02-24T05:53:26.992Z,28.06
2019-02-24T05:54:26.977Z,27.76
2019-02-24T05:55:26.973Z,27.76
2019-02-24T05:56:26.977Z,27.76
2019-02-24T05:57:26.942Z,28.06
2019-02-24T05:58:26.936Z,28.36
2019-02-24T05:59:26.926Z,28.56
2019-02-24T06:00:26.915Z,28.46
2019-02-24T06:01:26.900Z,28.06
2019-02-24T06:02:26.906Z,28.26
2019-02-24T06:03:26.883Z,28.16
2019-02-24T06:04:26.858Z,28.46
2019-02-24T06:05:26.849Z,28.36
2019-02-24T06:06:26.840Z,27.96
2019-02-24T06:07:26.837Z,28.46
2019-02-24T06:08:26.853Z,28.56
2019-02-24T06:09:26.815Z,28.26
2019-02-24T06:10:26.794Z,28.06
2019-02-24T06:11:26.790Z,28.86
2019-02-24T06:12:26.775Z,28.46
2019-02-24T06:13:26.771Z,28.26
2019-02-24T06:14:26.801Z,28.56
2019-02-24T06:15:26.743Z,28.56
2019-02-24T06:16:26.744Z,28.46
2019-02-24T06:17:26.722Z,28.56
2019-02-24T06:18:26.718Z,28.56
2019-02-24T06:19:26.703Z,28.17
2019-02-24T06:20:26.707Z,28.16
2019-02-24T06:21:26.685Z,28.16
2019-02-24T06:22:26.664Z,28.56
2019-02-24T06:23:26.665Z,28.06
2019-02-24T06:24:26.647Z,28.06
2019-02-24T06:25:26.653Z,28.06
2019-02-24T06:26:26.638Z,28.78
2019-02-24T06:27:26.611Z,28.16
2019-02-24T06:28:26.598Z,28.06
2019-02-24T06:29:26.586Z,27.86
2019-02-24T06:30:26.586Z,28.16
2019-02-24T06:31:26.579Z,28.16
2019-02-24T06:32:26.577Z,28.36
2019-02-24T06:33:26.547Z,27.76
2019-02-24T06:34:26.529Z,28.36
2019-02-24T06:35:26.568Z,27.86
2019-02-24T06:36:26.518Z,27.66
2019-02-24T06:37:26.500Z,28.36
2019-02-24T06:38:26.511Z,27.66
2019-02-24T06:39:26.500Z,28.36
2019-02-24T06:40:26.467Z,27.76
2019-02-24T06:41:26.462Z,27.66
2019-02-24T06:42:26.461Z,28.56
2019-02-24T06:43:26.436Z,28.56
2019-02-24T06:44:26.449Z,28.66
2019-02-24T06:45:26.416Z,28.96
2019-02-24T06:46:26.401Z,28.77
2019-02-24T06:47:26.391Z,28.96
2019-02-24T06:48:26.391Z,29.27
2019-02-24T06:49:26.372Z,28.86
2019-02-24T06:50:35.050Z,28.86
2019-02-24T06:51:27.353Z,29.16
2019-02-24T06:52:28.049Z,29.27
2019-02-24T06:53:26.325Z,29.36
2019-02-24T06:54:26.311Z,29.28
2019-02-24T06:55:26.322Z,29.06
2019-02-24T06:56:26.314Z,29.36
2019-02-24T06:57:26.284Z,29.06
2019-02-24T06:58:26.273Z,29.06
2019-02-24T06:59:26.255Z,29.36
2019-02-24T07:00:26.246Z,29.06
2019-02-24T07:01:26.237Z,29.27
2019-02-24T07:02:26.250Z,29.36
2019-02-24T07:03:26.223Z,29.06
2019-02-24T07:04:26.203Z,29.36
2019-02-24T07:05:26.220Z,29.06
2019-02-24T07:06:26.192Z,28.96
2019-02-24T07:07:26.168Z,29.06
2019-02-24T07:08:26.205Z,28.96
2019-02-24T07:09:26.148Z,29.06
2019-02-24T07:10:26.132Z,29.06
2019-02-24T07:11:26.128Z,28.77
2019-02-24T07:12:26.118Z,28.66
2019-02-24T07:13:26.102Z,28.86
2019-02-24T07:14:26.116Z,28.77
2019-02-24T07:15:26.083Z,28.86
2019-02-24T07:16:26.080Z,28.77
2019-02-24T07:17:26.066Z,28.96
2019-02-24T07:18:26.051Z,28.96
2019-02-24T07:19:26.039Z,29.06
2019-02-24T07:20:26.048Z,28.96
2019-02-24T07:21:26.036Z,28.96
2019-02-24T07:22:26.007Z,29.36
2019-02-24T07:23:25.995Z,28.96
2019-02-24T07:24:25.985Z,29.27
2019-02-24T07:25:25.967Z,28.56
2019-02-24T07:26:25.991Z,28.86
2019-02-24T07:27:25.956Z,29.16
2019-02-24T07:28:25.943Z,29.06
2019-02-24T07:29:25.927Z,29.06
2019-02-24T07:30:25.921Z,28.86
2019-02-24T07:31:25.915Z,29.06
2019-02-24T07:32:25.918Z,29.06
2019-02-24T07:33:25.887Z,29.47
2019-02-24T07:34:25.880Z,29.97
2019-02-24T07:35:25.867Z,29.06
2019-02-24T07:36:25.853Z,29.16
2019-02-24T07:37:25.841Z,29.36
2019-02-24T07:38:25.851Z,29.16
2019-02-24T07:39:25.822Z,29.77
2019-02-24T07:40:25.805Z,28.86
2019-02-24T07:41:25.796Z,29.16
2019-02-24T07:42:25.786Z,30.07
2019-02-24T07:43:25.774Z,30.07
2019-02-24T07:44:25.793Z,29.66
2019-02-24T07:45:25.751Z,29.57
2019-02-24T07:46:25.740Z,29.57
2019-02-24T07:47:25.742Z,29.57
2019-02-24T07:48:25.726Z,29.77
2019-02-24T07:49:25.714Z,29.16
2019-02-24T07:50:25.722Z,29.57
2019-02-24T07:51:25.687Z,29.27
2019-02-24T07:52:25.679Z,29.27
2019-02-24T07:53:25.669Z,29.57
2019-02-24T07:54:25.653Z,29.27
2019-02-24T07:55:25.643Z,29.36
2019-02-24T07:56:25.654Z,29.47
2019-02-24T07:57:25.626Z,29.27
2019-02-24T07:58:25.614Z,29.47
2019-02-24T07:59:25.605Z,29.47
2019-02-24T08:00:31.903Z,29.66
2019-02-24T08:01:26.618Z,30.95
2019-02-24T08:02:25.565Z,30.95
2019-02-24T08:03:25.555Z,29.95
2019-02-24T08:04:25.541Z,29.45
2019-02-24T08:05:25.532Z,30.05
2019-02-24T08:06:25.528Z,30.35
2019-02-24T08:07:25.543Z,29.47
2019-02-24T08:08:25.499Z,29.45
2019-02-24T08:09:25.485Z,29.77
2019-02-24T08:10:25.469Z,29.55
2019-02-24T08:11:25.476Z,29.47
2019-02-24T08:12:25.462Z,29.06
2019-02-24T08:13:25.461Z,29.47
2019-02-24T08:14:25.453Z,29.47
2019-02-24T08:15:25.425Z,29.47
2019-02-24T08:16:25.415Z,29.77
2019-02-24T08:17:25.400Z,29.47
2019-02-24T08:18:25.393Z,29.77
2019-02-24T08:19:25.406Z,29.77
2019-02-24T08:20:25.370Z,30.07
2019-02-24T08:21:25.355Z,29.86
2019-02-24T08:22:25.348Z,30.36
2019-02-24T08:23:25.332Z,29.86
2019-02-24T08:24:25.337Z,30.36
2019-02-24T08:25:25.436Z,30.27
2019-02-24T08:26:25.309Z,29.66
2019-02-24T08:27:25.312Z,29.66
2019-02-24T08:28:25.281Z,29.66
2019-02-24T08:29:25.269Z,29.86
2019-02-24T08:30:25.262Z,29.86
2019-02-24T08:31:25.266Z,29.66
2019-02-24T08:32:25.257Z,29.86
2019-02-24T08:33:25.222Z,29.86
2019-02-24T08:34:25.209Z,29.47
2019-02-24T08:35:25.210Z,29.77
2019-02-24T08:36:25.192Z,29.88
2019-02-24T08:37:25.223Z,29.66
2019-02-24T08:38:25.170Z,29.86
2019-02-24T08:39:25.199Z,29.66
2019-02-24T08:40:25.142Z,29.97
2019-02-24T08:41:25.142Z,29.66
2019-02-24T08:42:25.192Z,29.77
2019-02-24T08:43:25.130Z,29.97
2019-02-24T08:44:25.103Z,29.36
2019-02-24T08:45:25.093Z,30.36
2019-02-24T08:46:25.077Z,30.07
2019-02-24T08:47:25.073Z,29.36
2019-02-24T08:48:25.108Z,30.07
2019-02-24T08:49:25.084Z,30.27
2019-02-24T08:50:25.037Z,29.97
2019-02-24T08:51:25.035Z,29.97
2019-02-24T08:52:25.010Z,29.97
2019-02-24T08:53:25.006Z,30.07
2019-02-24T08:54:24.992Z,30.27
2019-02-24T08:55:25.003Z,30.27
2019-02-24T08:56:24.974Z,29.97
2019-02-24T08:57:24.959Z,30.27
2019-02-24T08:58:24.949Z,29.66
2019-02-24T08:59:24.948Z,30.36
2019-02-24T09:00:24.932Z,29.66
2019-02-24T09:01:24.976Z,29.66
2019-02-24T09:02:24.908Z,29.97
2019-02-24T09:03:24.892Z,29.86
2019-02-24T09:04:24.881Z,29.97
2019-02-24T09:05:24.875Z,29.86
2019-02-24T09:06:24.864Z,29.86
2019-02-24T09:07:24.869Z,29.86
2019-02-24T09:08:24.838Z,29.97
2019-02-24T09:09:24.828Z,30.08
2019-02-24T09:10:24.819Z,30.07
2019-02-24T09:11:24.809Z,30.16
2019-02-24T09:12:24.797Z,30.36
2019-02-24T09:13:24.922Z,30.36
2019-02-24T09:14:24.771Z,29.97
2019-02-24T09:15:24.768Z,29.66
2019-02-24T09:16:24.752Z,30.36
2019-02-24T09:17:24.739Z,29.66
2019-02-24T09:18:24.733Z,29.66
2019-02-24T09:19:24.733Z,30.36
2019-02-24T09:20:24.710Z,29.77
2019-02-24T09:21:24.698Z,29.77
2019-02-24T09:22:24.688Z,30.16
2019-02-24T09:23:24.681Z,30.67
2019-02-24T09:24:24.671Z,30.67
2019-02-24T09:25:24.688Z,30.87
2019-02-24T09:26:24.638Z,31.17
2019-02-24T09:27:24.631Z,30.47
2019-02-24T09:28:24.625Z,30.67
2019-02-24T09:29:24.609Z,30.67
2019-02-24T09:30:24.603Z,30.67
2019-02-24T09:31:24.865Z,30.67
2019-02-24T09:32:24.581Z,30.87
2019-02-24T09:33:24.569Z,30.87
2019-02-24T09:34:24.555Z,30.57
2019-02-24T09:35:24.539Z,30.87
2019-02-24T09:36:24.532Z,30.67
2019-02-24T09:37:24.561Z,29.86
2019-02-24T09:38:24.511Z,30.77
2019-02-24T09:39:24.495Z,30.47
2019-02-24T09:40:24.486Z,30.77
2019-02-24T09:41:24.494Z,30.07
2019-02-24T09:42:24.468Z,30.87
2019-02-24T09:43:24.469Z,29.77
2019-02-24T09:44:24.446Z,30.77
2019-02-24T09:45:24.433Z,30.47
2019-02-24T09:46:24.424Z,30.67
2019-02-24T09:47:24.409Z,30.07
2019-02-24T09:48:24.394Z,30.67
2019-02-24T09:49:24.422Z,30.77
2019-02-24T09:50:24.375Z,30.47
2019-02-24T09:51:24.364Z,30.67
2019-02-24T09:52:24.356Z,30.47
2019-02-24T09:53:24.345Z,30.67
2019-02-24T09:54:24.329Z,30.87
2019-02-24T09:55:24.335Z,30.47
2019-02-24T09:56:24.324Z,29.77
2019-02-24T09:57:24.305Z,30.77
2019-02-24T09:58:24.286Z,30.65
2019-02-24T09:59:24.277Z,30.77
2019-02-24T10:00:24.262Z,30.77
2019-02-24T10:01:24.271Z,30.47
2019-02-24T10:02:24.241Z,30.57
2019-02-24T10:03:24.232Z,30.77
2019-02-24T10:04:24.234Z,30.47
2019-02-24T10:05:24.211Z,30.77
2019-02-24T10:06:24.202Z,30.67
2019-02-24T10:07:24.207Z,30.77
2019-02-24T10:08:24.175Z,29.77
2019-02-24T10:09:24.169Z,30.87
2019-02-24T10:10:24.155Z,30.87
2019-02-24T10:11:24.165Z,30.77
2019-02-24T10:12:24.135Z,30.67
2019-02-24T10:13:24.146Z,30.77
2019-02-24T10:14:24.111Z,30.67
2019-02-24T10:15:24.096Z,30.76
2019-02-24T10:16:24.092Z,30.47
2019-02-24T10:17:24.081Z,30.97
2019-02-24T10:18:24.063Z,30.87
2019-02-24T10:19:24.071Z,30.87
2019-02-24T10:20:24.052Z,30.67
2019-02-24T10:21:24.041Z,30.57
2019-02-24T10:22:24.018Z,30.67
2019-02-24T10:23:24.017Z,30.67
2019-02-24T10:24:23.996Z,30.36
2019-02-24T10:25:24.031Z,30.76
2019-02-24T10:26:23.979Z,30.65
2019-02-24T10:27:23.973Z,30.97
2019-02-24T10:28:23.953Z,30.76
2019-02-24T10:29:23.944Z,30.97
2019-02-24T10:30:23.929Z,30.77
2019-02-24T10:31:23.947Z,30.67
2019-02-24T10:32:23.909Z,30.97
2019-02-24T10:33:23.898Z,30.95
2019-02-24T10:34:23.908Z,30.95
2019-02-24T10:35:23.873Z,30.47
2019-02-24T10:36:23.867Z,30.57
2019-02-24T10:37:23.879Z,30.87
2019-02-24T10:38:23.847Z,30.47
2019-02-24T10:39:29.655Z,30.57
2019-02-24T10:40:24.823Z,30.57
2019-02-24T10:41:23.812Z,30.47
2019-02-24T10:42:23.802Z,30.97
2019-02-24T10:43:23.877Z,30.57
2019-02-24T10:44:23.798Z,30.97
2019-02-24T10:45:23.765Z,30.65
2019-02-24T10:46:23.763Z,30.76
2019-02-24T10:47:23.777Z,30.87
2019-02-24T10:48:23.756Z,31.05
2019-02-24T10:49:23.747Z,30.97
2019-02-24T10:50:23.720Z,30.77
2019-02-24T10:51:25.375Z,30.77
2019-02-24T10:52:23.688Z,30.67
2019-02-24T10:53:23.679Z,30.57
2019-02-24T10:54:23.674Z,30.97
2019-02-24T10:55:23.692Z,30.55
2019-02-24T10:56:23.653Z,30.97
2019-02-24T10:57:23.630Z,30.85
2019-02-24T10:58:23.630Z,30.87
2019-02-24T10:59:23.615Z,30.57
2019-02-24T11:00:23.606Z,30.77
2019-02-24T11:01:29.686Z,30.87
2019-02-24T11:02:24.581Z,30.45
2019-02-24T11:03:23.573Z,30.77
2019-02-24T11:04:23.558Z,31.05
2019-02-24T11:05:23.562Z,30.77
2019-02-24T11:06:23.538Z,30.76
2019-02-24T11:07:23.550Z,30.77
2019-02-24T11:08:23.511Z,30.95
2019-02-24T11:09:23.510Z,30.85
2019-02-24T11:10:23.514Z,30.87
2019-02-24T11:11:23.478Z,31.05
2019-02-24T11:12:23.470Z,30.45
2019-02-24T11:13:23.493Z,30.95
2019-02-24T11:14:24.284Z,31.05
2019-02-24T11:15:23.438Z,30.97
2019-02-24T11:16:23.427Z,31.15
2019-02-24T11:17:23.412Z,30.95
2019-02-24T11:18:23.400Z,30.85
2019-02-24T11:19:23.408Z,31.05
2019-02-24T11:20:23.380Z,31.15
2019-02-24T11:21:23.379Z,30.85
2019-02-24T11:22:23.384Z,31.27
2019-02-24T11:23:23.355Z,31.15
2019-02-24T11:24:23.360Z,31.15
2019-02-24T11:25:24.715Z,31.15
2019-02-24T11:26:23.323Z,31.15
2019-02-24T11:27:23.306Z,31.07
2019-02-24T11:28:23.302Z,31.15
2019-02-24T11:29:23.792Z,30.77
2019-02-24T11:30:23.351Z,31.15
2019-02-24T11:31:23.286Z,31.15
2019-02-24T11:32:23.246Z,31.17
2019-02-24T11:33:23.244Z,31.15
2019-02-24T11:34:23.250Z,31.15
2019-02-24T11:35:23.235Z,31.27
2019-02-24T11:36:23.216Z,31.17
2019-02-24T11:37:23.249Z,31.26
2019-02-24T11:38:23.185Z,31.26
2019-02-24T11:39:23.180Z,31.15
2019-02-24T11:40:23.162Z,30.87
2019-02-24T11:41:23.150Z,31.35
2019-02-24T11:42:23.145Z,31.26
2019-02-24T11:43:23.150Z,31.15
2019-02-24T11:44:23.131Z,31.26
2019-02-24T11:45:23.107Z,30.87
2019-02-24T11:46:23.097Z,31.07
2019-02-24T11:47:23.090Z,31.35
2019-02-24T11:48:23.086Z,30.95
2019-02-24T11:49:24.118Z,31.07
2019-02-24T11:50:23.053Z,31.07
2019-02-24T11:51:23.065Z,30.85
2019-02-24T11:52:23.043Z,31.26
2019-02-24T11:53:23.041Z,30.87
2019-02-24T11:54:23.048Z,31.35
2019-02-24T11:55:23.011Z,30.85
2019-02-24T11:56:22.993Z,31.37
2019-02-24T11:57:22.977Z,30.95
2019-02-24T11:58:22.971Z,30.95
2019-02-24T11:59:22.951Z,30.76
2019-02-24T12:00:22.939Z,31.05
2019-02-24T12:01:22.993Z,31.05
2019-02-24T12:02:22.921Z,30.95
2019-02-24T12:03:22.910Z,30.97
2019-02-24T12:04:22.896Z,31.05
2019-02-24T12:05:22.884Z,30.87
2019-02-24T12:06:22.874Z,31.05
2019-02-24T12:07:22.887Z,30.97
2019-02-24T12:08:22.854Z,30.87
2019-02-24T12:09:22.847Z,30.87
2019-02-24T12:10:22.854Z,31.05
2019-02-24T12:11:22.819Z,30.95
2019-02-24T12:12:22.816Z,31.26
2019-02-24T12:13:22.830Z,30.45
2019-02-24T12:14:22.789Z,31.05
2019-02-24T12:15:22.778Z,31.05
2019-02-24T12:16:22.760Z,31.05
2019-02-24T12:17:22.752Z,30.95
2019-02-24T12:18:22.747Z,30.35
2019-02-24T12:19:22.754Z,30.55
2019-02-24T12:20:22.719Z,30.45
2019-02-24T12:21:22.712Z,30.55
2019-02-24T12:22:22.695Z,30.76
2019-02-24T12:23:22.686Z,31.15
2019-02-24T12:24:22.675Z,30.65
2019-02-24T12:25:22.686Z,30.55
2019-02-24T12:26:22.649Z,30.95
2019-02-24T12:27:22.655Z,30.85
2019-02-24T12:28:22.630Z,30.55
2019-02-24T12:29:22.621Z,30.76
2019-02-24T12:30:22.613Z,30.65
2019-02-24T12:31:22.640Z,30.45
2019-02-24T12:32:22.599Z,31.26
2019-02-24T12:33:22.574Z,30.65
2019-02-24T12:34:22.574Z,30.65
2019-02-24T12:35:22.563Z,30.85
2019-02-24T12:36:22.545Z,30.95
2019-02-24T12:37:22.550Z,31.26
2019-02-24T12:38:22.519Z,31.15
2019-02-24T12:39:22.507Z,31.26
2019-02-24T12:40:22.500Z,30.45
2019-02-24T12:41:22.490Z,31.76
2019-02-24T12:42:22.478Z,31.65
2019-02-24T12:43:22.479Z,31.35
2019-02-24T12:44:22.455Z,31.05
2019-02-24T12:45:22.460Z,31.46
2019-02-24T12:46:22.443Z,31.26
2019-02-24T12:47:22.425Z,31.26
2019-02-24T12:48:22.409Z,31.26
2019-02-24T12:49:22.420Z,31.65
2019-02-24T12:50:22.390Z,32.06
2019-02-24T12:51:22.392Z,31.64
2019-02-24T12:52:22.368Z,31.85
2019-02-24T12:53:22.355Z,31.46
2019-02-24T12:54:22.346Z,31.65
2019-02-24T12:55:22.354Z,31.46
2019-02-24T12:56:22.321Z,31.56
2019-02-24T12:57:22.309Z,31.54
2019-02-24T12:58:22.302Z,31.96
2019-02-24T12:59:22.300Z,31.26
2019-02-24T13:00:22.276Z,31.34
2019-02-24T13:01:22.310Z,31.35
2019-02-24T13:02:22.268Z,31.76
2019-02-24T13:03:24.234Z,31.65
2019-02-24T13:04:22.233Z,31.46
2019-02-24T13:05:22.226Z,31.44
2019-02-24T13:06:22.215Z,31.94
2019-02-24T13:07:22.212Z,31.15
2019-02-24T13:08:22.187Z,32.06
2019-02-24T13:09:22.184Z,31.24
2019-02-24T13:10:22.212Z,32.24
2019-02-24T13:11:22.152Z,31.64
2019-02-24T13:12:22.151Z,32.44
2019-02-24T13:13:22.150Z,31.94
2019-02-24T13:14:22.118Z,31.74
2019-02-24T13:15:22.111Z,32.44